createdAt,value
2017-12-02T00:02:03.645Z,26.3
2017-12-02T00:05:00.705Z,26.3
2017-12-02T00:07:57.683Z,26.3
2017-12-02T00:10:54.679Z,26.4
2017-12-02T00:13:51.694Z,26.4
2017-12-02T00:22:42.652Z,26.4
2017-12-02T00:25:39.701Z,26.4
2017-12-02T00:28:36.756Z,26.4
2017-12-02T00:37:27.707Z,26.4
2017-12-02T00:40:24.703Z,26.4
2017-12-02T00:46:18.692Z,26.5
2017-12-02T00:49:15.646Z,26.5
2017-12-02T00:52:12.724Z,26.5
2017-12-02T00:55:09.665Z,26.6
2017-12-02T00:58:06.842Z,26.6
2017-12-02T01:01:03.661Z,26.6
2017-12-02T01:04:00.716Z,26.7
2017-12-02T01:06:57.620Z,26.8
2017-12-02T01:09:54.783Z,26.8
2017-12-02T01:12:51.657Z,26.8
2017-12-02T01:18:45.746Z,26.9
2017-12-02T01:21:42.610Z,27
2017-12-02T01:24:39.711Z,27
2017-12-02T01:27:36.633Z,27
2017-12-02T01:30:33.709Z,27
2017-12-02T01:33:30.713Z,27.1
2017-12-02T01:36:27.706Z,27.2
2017-12-02T01:39:24.665Z,27.2
2017-12-02T01:42:21.733Z,27.2
2017-12-02T01:45:18.682Z,27.2
2017-12-02T01:48:15.737Z,27.2
2017-12-02T01:51:12.667Z,27.3
2017-12-02T01:54:10.820Z,27.3
2017-12-02T01:57:06.681Z,27.3
2017-12-02T02:03:00.727Z,27.4
2017-12-02T02:05:57.725Z,27.3
2017-12-02T02:08:54.789Z,27.4
2017-12-02T02:11:51.754Z,27.4
2017-12-02T02:14:49.760Z,27.5
2017-12-02T02:20:42.773Z,27.6
2017-12-02T02:23:39.706Z,27.8
2017-12-02T02:26:39.927Z,27.8
2017-12-02T02:29:33.691Z,27.9
2017-12-02T02:32:30.743Z,28
2017-12-02T02:38:24.763Z,28.1
2017-12-02T02:41:21.645Z,28.2
2017-12-02T02:44:18.740Z,28.2
2017-12-02T02:47:15.684Z,28.3
2017-12-02T02:50:12.759Z,28.3
2017-12-02T02:53:09.669Z,28.3
2017-12-02T02:56:06.834Z,28.4
2017-12-02T02:59:03.663Z,28.4
2017-12-02T03:02:00.794Z,28.4
2017-12-02T03:04:57.688Z,28.6
2017-12-02T03:07:54.800Z,28.6
2017-12-02T03:10:51.740Z,28.7
2017-12-02T03:13:48.805Z,28.7
2017-12-02T03:16:45.719Z,28.8
2017-12-02T03:19:42.815Z,28.9
2017-12-02T03:25:36.876Z,29
2017-12-02T03:31:30.805Z,29.2
2017-12-02T03:34:27.758Z,29.2
2017-12-02T03:37:24.977Z,29.3
2017-12-02T03:40:21.933Z,29.4
2017-12-02T03:43:18.883Z,29.4
2017-12-02T03:46:15.891Z,29.5
2017-12-02T03:55:07.122Z,29.5
2017-12-02T03:58:03.920Z,29.6
2017-12-02T04:01:01.023Z,29.5
2017-12-02T04:03:57.923Z,29.6
2017-12-02T04:09:51.853Z,29.7
2017-12-02T04:12:48.799Z,29.7
2017-12-02T04:18:42.876Z,29.8
2017-12-02T04:27:33.879Z,30
2017-12-02T04:30:32.747Z,30
2017-12-02T04:33:27.933Z,30
2017-12-02T04:36:24.734Z,30
2017-12-02T04:39:21.821Z,30
2017-12-02T04:42:21.790Z,30
2017-12-02T04:45:16.602Z,30
2017-12-02T04:48:12.771Z,30
2017-12-02T04:51:09.884Z,30.2
2017-12-02T04:54:06.760Z,30.3
2017-12-02T05:00:00.789Z,30.4
2017-12-02T05:02:57.755Z,30.4
2017-12-02T05:08:51.817Z,30.4
2017-12-02T05:11:48.777Z,30.4
2017-12-02T05:14:45.817Z,30.5
2017-12-02T05:17:42.760Z,30.6
2017-12-02T05:20:39.842Z,30.7
2017-12-02T05:23:36.818Z,30.6
2017-12-02T05:26:33.823Z,30.7
2017-12-02T05:29:30.798Z,30.7
2017-12-02T05:32:27.853Z,30.8
2017-12-02T05:35:24.742Z,30.8
2017-12-02T05:38:21.813Z,30.8
2017-12-02T05:41:18.799Z,30.9
2017-12-02T05:44:15.810Z,31
2017-12-02T05:47:13.758Z,31.1
2017-12-02T05:50:09.925Z,31.1
2017-12-02T05:53:06.838Z,31.1
2017-12-02T05:56:03.890Z,31
2017-12-02T05:59:00.849Z,31.1
2017-12-02T06:04:54.872Z,31.1
2017-12-02T06:07:51.820Z,31.2
2017-12-02T06:10:49.199Z,31.3
2017-12-02T06:13:45.867Z,31.4
2017-12-02T06:16:42.951Z,31.4
2017-12-02T06:28:32.003Z,31.4
2017-12-02T06:31:28.786Z,31.5
2017-12-02T06:34:25.867Z,31.5
2017-12-02T06:37:22.841Z,31.6
2017-12-02T06:40:19.835Z,31.6
2017-12-02T06:43:16.874Z,31.6
2017-12-02T06:46:13.903Z,31.6
2017-12-02T06:49:10.873Z,31.6
2017-12-02T06:52:07.842Z,31.7
2017-12-02T06:58:01.938Z,31.7
2017-12-02T07:03:55.932Z,31.8
2017-12-02T07:06:52.832Z,31.8
2017-12-02T07:09:49.906Z,31.8
2017-12-02T07:12:46.821Z,31.8
2017-12-02T07:18:40.927Z,31.9
2017-12-02T07:21:37.865Z,31.9
2017-12-02T07:24:35.046Z,31.8
2017-12-02T07:27:31.914Z,31.9
2017-12-02T07:30:28.995Z,32
2017-12-02T07:33:25.833Z,32
2017-12-02T07:36:22.955Z,32
2017-12-02T07:39:19.885Z,32
2017-12-02T07:42:16.933Z,32
2017-12-02T07:45:13.840Z,32
2017-12-02T07:48:10.928Z,32.1
2017-12-02T07:51:07.898Z,32.1
2017-12-02T07:54:04.937Z,32
2017-12-02T07:59:58.944Z,32
2017-12-02T08:02:55.862Z,32
2017-12-02T08:05:52.979Z,31.9
2017-12-02T08:41:16.933Z,31.8
2017-12-02T08:47:10.972Z,31.8
2017-12-02T09:01:55.972Z,31.6
2017-12-02T09:07:49.955Z,31.6
2017-12-02T09:19:37.945Z,31.4
2017-12-02T09:34:22.958Z,31.2
2017-12-02T09:37:19.936Z,31.2
2017-12-02T09:40:16.974Z,31.2
2017-12-02T09:52:06.038Z,30.7
2017-12-02T09:57:58.972Z,30.6
2017-12-02T10:21:35.076Z,30.2
2017-12-02T10:57:01.080Z,29.7
2017-12-02T11:02:53.029Z,29.7
2017-12-02T11:05:49.960Z,29.6
2017-12-02T11:17:38.115Z,29.5
2017-12-02T11:23:32.035Z,29.4
2017-12-02T11:32:23.023Z,29.4
2017-12-02T11:38:17.042Z,29.4
2017-12-02T11:44:11.066Z,29.3
2017-12-02T11:50:05.082Z,29.2
2017-12-02T11:53:01.946Z,29.2
2017-12-02T12:01:53.099Z,29.2
2017-12-02T12:10:44.315Z,29
2017-12-02T12:19:35.235Z,29
2017-12-02T12:22:33.991Z,29
2017-12-02T12:31:23.111Z,28.9
2017-12-02T12:46:08.105Z,28.8
2017-12-02T12:49:05.081Z,28.8
2017-12-02T12:52:02.082Z,28.8
2017-12-02T12:55:02.016Z,28.8
2017-12-02T13:03:50.144Z,28.7
2017-12-02T13:06:48.051Z,28.7
2017-12-02T13:12:41.077Z,28.8
2017-12-02T13:15:38.059Z,28.7
2017-12-02T13:21:32.216Z,28.7
2017-12-02T13:24:29.058Z,28.7
2017-12-02T13:27:26.083Z,28.7
2017-12-02T13:30:23.076Z,28.6
2017-12-02T13:36:17.199Z,28.6
2017-12-02T13:39:14.116Z,28.6
2017-12-02T13:42:12.092Z,28.6
2017-12-02T13:45:08.010Z,28.6
2017-12-02T13:48:05.105Z,28.6
2017-12-02T13:51:02.023Z,28.5
2017-12-02T13:53:59.090Z,28.6
2017-12-02T13:59:53.247Z,28.5
2017-12-02T14:02:50.011Z,28.5
2017-12-02T14:05:47.127Z,28.5
2017-12-02T14:08:45.105Z,28.4
2017-12-02T14:11:43.140Z,28.4
2017-12-02T14:20:33.141Z,28.4
2017-12-02T14:23:29.043Z,28.4
2017-12-02T14:26:26.167Z,28.4
2017-12-02T14:32:20.120Z,28.4
2017-12-02T14:38:14.139Z,28.4
2017-12-02T14:47:05.113Z,28.4
2017-12-02T14:50:02.079Z,28.4
2017-12-02T14:55:56.190Z,28.4
2017-12-02T14:58:53.060Z,28.4
2017-12-02T15:01:50.177Z,28.4
2017-12-02T15:07:44.235Z,28.4
2017-12-02T15:10:41.095Z,28.4
2017-12-02T15:13:38.179Z,28.4
2017-12-02T15:16:35.124Z,28.4
2017-12-02T15:22:29.180Z,28.3
2017-12-02T15:25:26.193Z,28.3
2017-12-02T15:31:20.200Z,28.3
2017-12-02T15:34:17.097Z,28.3
2017-12-02T15:37:14.287Z,28.3
2017-12-02T15:40:12.194Z,28.2
2017-12-02T15:43:08.172Z,28.2
2017-12-02T15:46:05.087Z,28.2
2017-12-02T15:54:56.186Z,28.2
2017-12-02T15:57:53.158Z,28.2
2017-12-02T16:06:44.261Z,28.2
2017-12-02T16:12:39.238Z,28
2017-12-02T16:21:29.246Z,28
2017-12-02T16:27:23.178Z,28
2017-12-02T16:33:17.166Z,28
2017-12-02T16:36:14.068Z,28
2017-12-02T16:42:09.281Z,28
2017-12-02T16:45:06.241Z,28
2017-12-02T16:48:02.171Z,28
2017-12-02T16:50:59.151Z,28
2017-12-02T16:53:56.257Z,28
2017-12-02T16:56:53.154Z,27.9
2017-12-02T16:59:50.197Z,28
2017-12-02T17:08:41.331Z,27.9
2017-12-02T17:14:36.344Z,27.9
2017-12-02T17:23:26.247Z,27.8
2017-12-02T17:26:23.136Z,27.8
2017-12-02T17:29:20.207Z,27.8
2017-12-02T17:35:14.271Z,27.8
2017-12-02T17:38:11.153Z,27.8
2017-12-02T17:44:06.306Z,27.7
2017-12-02T17:47:02.198Z,27.7
2017-12-02T17:49:59.234Z,27.7
2017-12-02T17:52:56.334Z,27.7
2017-12-02T17:55:53.268Z,27.6
2017-12-02T17:58:50.329Z,27.6
2017-12-02T18:01:48.298Z,27.6
2017-12-02T18:07:42.300Z,27.6
2017-12-02T18:10:38.210Z,27.6
2017-12-02T18:13:35.278Z,27.6
2017-12-02T18:16:32.181Z,27.6
2017-12-02T18:19:30.264Z,27.6
2017-12-02T18:22:26.224Z,27.6
2017-12-02T18:25:24.287Z,27.6
2017-12-02T18:28:20.243Z,27.6
2017-12-02T18:31:17.248Z,27.6
2017-12-02T18:43:06.285Z,27.5
2017-12-02T18:48:59.248Z,27.5
2017-12-02T18:51:56.277Z,27.5
2017-12-02T18:54:54.234Z,27.5
2017-12-02T19:03:45.288Z,27.4
2017-12-02T19:06:41.272Z,27.4
2017-12-02T19:09:39.238Z,27.3
2017-12-02T19:12:36.240Z,27.3
2017-12-02T19:15:33.371Z,27.4
2017-12-02T19:18:29.229Z,27.3
2017-12-02T19:21:27.329Z,27.3
2017-12-02T19:27:20.280Z,27.2
2017-12-02T19:30:17.261Z,27.2
2017-12-02T19:33:15.218Z,27.2
2017-12-02T19:36:11.297Z,27.2
2017-12-02T19:39:08.298Z,27.2
2017-12-02T19:45:03.331Z,27.2
2017-12-02T19:48:00.204Z,27.2
2017-12-02T19:50:56.304Z,27.1
2017-12-02T19:53:53.263Z,27.1
2017-12-02T19:56:53.319Z,27.1
2017-12-02T19:59:47.236Z,27.1
2017-12-02T20:02:45.377Z,27.1
2017-12-02T20:05:41.254Z,27
2017-12-02T20:11:35.338Z,27
2017-12-02T20:14:33.243Z,27
2017-12-02T20:17:30.335Z,27
2017-12-02T20:23:23.327Z,27
2017-12-02T20:26:20.249Z,26.9
2017-12-02T20:29:17.308Z,26.9
2017-12-02T20:35:12.400Z,26.9
2017-12-02T20:41:06.293Z,26.9
2017-12-02T20:44:03.304Z,26.9
2017-12-02T20:47:00.370Z,26.8
2017-12-02T20:49:56.235Z,26.8
2017-12-02T20:52:53.285Z,26.8
2017-12-02T20:55:50.269Z,26.8
2017-12-02T20:58:48.332Z,26.8
2017-12-02T21:01:45.223Z,26.8
2017-12-02T21:04:42.328Z,26.8
2017-12-02T21:10:36.340Z,26.8
2017-12-02T21:13:35.257Z,26.8
2017-12-02T21:19:27.414Z,26.7
2017-12-02T21:22:23.247Z,26.7
2017-12-02T21:28:17.346Z,26.7
2017-12-02T21:31:14.334Z,26.7
2017-12-02T21:34:12.389Z,26.7
2017-12-02T21:40:06.398Z,26.7
2017-12-02T21:43:03.321Z,26.7
2017-12-02T21:46:00.409Z,26.7
2017-12-02T21:51:53.376Z,26.6
2017-12-02T21:54:50.261Z,26.6
2017-12-02T22:00:44.417Z,26.6
2017-12-02T22:03:41.277Z,26.6
2017-12-02T22:06:38.368Z,26.6
2017-12-02T22:09:36.366Z,26.5
2017-12-02T22:12:33.386Z,26.5
2017-12-02T22:15:30.525Z,26.5
2017-12-02T22:21:24.487Z,26.4
2017-12-02T22:27:18.448Z,26.4
2017-12-02T22:30:14.365Z,26.4
2017-12-02T22:33:11.401Z,26.4
2017-12-02T22:36:09.321Z,26.4
2017-12-02T22:42:04.501Z,26.4
2017-12-02T22:45:00.319Z,26.4
2017-12-02T22:47:57.880Z,26.4
2017-12-02T22:50:53.357Z,26.4
2017-12-02T22:53:50.369Z,26.4
2017-12-02T23:02:42.510Z,26.2
2017-12-02T23:05:39.346Z,26.3
2017-12-02T23:11:33.556Z,26.2
2017-12-02T23:14:30.322Z,26.2
2017-12-02T23:17:27.497Z,26.3
2017-12-02T23:20:24.395Z,26.2
2017-12-02T23:23:21.377Z,26.2
2017-12-02T23:26:18.411Z,26.2
2017-12-02T23:29:15.406Z,26.2
2017-12-02T23:32:12.337Z,26.2
2017-12-02T23:35:09.433Z,26.2
2017-12-02T23:38:06.456Z,26.2
2017-12-02T23:41:03.525Z,26.1
2017-12-02T23:44:00.415Z,26.2
2017-12-02T23:46:57.456Z,26.1
2017-12-02T23:52:51.392Z,26.2
2017-12-02T23:55:48.476Z,26.2
2017-12-02T23:58:45.393Z,26.2
